Main page
METAR-TAF:

METAR-TAF

Airports :

Helsinki Airport

Helsinki, Finland

latitude: 60-19N, longitude: 024-58E, elevation: 51 m

Current weather observation

The report was made 14 minutes ago, at 00:20 UTC
Wind 13 kt from the South/Southwest
Temperature 2°C
Humidity 87%
Pressure 1014 hPa
Visibility 10 km or more
Few clouds at a height of 1000 ft

METAR: EFHK 110020Z 20013KT 9999 FEW010 02/00 Q1014 TEMPO BKN009

Time: 03:34 (00:34 UTC)

Forecast

The report was made 1 hour and 1 minutes ago, at 23:33 UTC
Forecast valid from 11 at 00 UTC to 11 at 24 UTC
Wind 9 kt from the South/Southwest
Visibility 10 km or more
no clouds below 1500 m and no cumulonimbus
Probability 30%
from 11 at 02 UTC to 11 at 05 UTC
Visibility: 4000 m
Broken clouds at a height of 400 ft
mist
Becoming
from 11 at 22 UTC to 11 at 24 UTC
Wind 10 kt from the East

TAF: EFHK 102333Z 1100/1124 20009KT CAVOK PROB30 1102/1105 4000 BR BKN004 BECMG 1122/1124 09010KT

Weather observations and forecasts of more than 4000 airports (METAR and TAF reports).

The available stations are represented by yellow and red dots on the map.

Hover mouse over dot to see the name of the station.

Then click to see weather observations and forecasts.

To change the map : click on the green buttons with a black cross to zoom in, on the green button with a dash to zoom out, or on the green arrows for adjacent maps.


METAR-TAF: